sensor_id;sensor_type;location;lat;lon;timestamp;P1;durP1;ratioP1;P2;durP2;ratioP2
18796;SDS011;9526;52.612;13.300;2022-10-22T00:01:57;81.68;;;26.13;;
18796;SDS011;9526;52.612;13.300;2022-10-22T00:04:21;64.40;;;25.95;;
18796;SDS011;9526;52.612;13.300;2022-10-22T00:06:45;134.43;;;32.40;;
18796;SDS011;9526;52.612;13.300;2022-10-22T00:09:09;152.13;;;33.38;;
18796;SDS011;9526;52.612;13.300;2022-10-22T00:11:33;73.35;;;27.92;;
18796;SDS011;9526;52.612;13.300;2022-10-22T00:13:56;130.13;;;33.67;;
18796;SDS011;9526;52.612;13.300;2022-10-22T00:16:20;82.20;;;28.95;;
18796;SDS011;9526;52.612;13.300;2022-10-22T00:18:44;118.80;;;30.50;;
18796;SDS011;9526;52.612;13.300;2022-10-22T00:21:09;184.75;;;34.20;;
18796;SDS011;9526;52.612;13.300;2022-10-22T00:23:33;105.55;;;31.13;;
18796;SDS011;9526;52.612;13.300;2022-10-22T00:25:57;84.55;;;28.90;;
18796;SDS011;9526;52.612;13.300;2022-10-22T00:28:20;156.63;;;32.83;;
18796;SDS011;9526;52.612;13.300;2022-10-22T00:30:44;111.65;;;29.58;;
18796;SDS011;9526;52.612;13.300;2022-10-22T00:33:08;83.70;;;27.98;;
18796;SDS011;9526;52.612;13.300;2022-10-22T00:35:32;156.55;;;33.78;;
18796;SDS011;9526;52.612;13.300;2022-10-22T00:37:57;83.45;;;27.42;;
18796;SDS011;9526;52.612;13.300;2022-10-22T00:40:20;78.63;;;26.88;;
18796;SDS011;9526;52.612;13.300;2022-10-22T00:42:44;91.60;;;28.08;;
18796;SDS011;9526;52.612;13.300;2022-10-22T00:45:15;451.08;;;43.58;;
18796;SDS011;9526;52.612;13.300;2022-10-22T00:47:46;106.13;;;28.73;;
18796;SDS011;9526;52.612;13.300;2022-10-22T00:50:16;526.92;;;42.00;;
18796;SDS011;9526;52.612;13.300;2022-10-22T00:52:44;40.28;;;20.15;;
18796;SDS011;9526;52.612;13.300;2022-10-22T00:55:10;80.65;;;26.00;;
18796;SDS011;9526;52.612;13.300;2022-10-22T00:57:35;221.07;;;31.48;;
18796;SDS011;9526;52.612;13.300;2022-10-22T00:59:58;67.53;;;24.63;;
18796;SDS011;9526;52.612;13.300;2022-10-22T01:02:23;69.15;;;25.13;;
18796;SDS011;9526;52.612;13.300;2022-10-22T01:04:47;68.20;;;24.55;;
18796;SDS011;9526;52.612;13.300;2022-10-22T01:07:12;137.43;;;30.10;;
18796;SDS011;9526;52.612;13.300;2022-10-22T01:09:40;236.73;;;34.33;;
18796;SDS011;9526;52.612;13.300;2022-10-22T01:12:11;61.05;;;23.10;;
18796;SDS011;9526;52.612;13.300;2022-10-22T01:14:44;47.42;;;21.38;;
18796;SDS011;9526;52.612;13.300;2022-10-22T01:17:22;71.13;;;23.98;;
18796;SDS011;9526;52.612;13.300;2022-10-22T01:19:57;56.80;;;23.17;;
18796;SDS011;9526;52.612;13.300;2022-10-22T01:22:31;47.92;;;21.52;;
18796;SDS011;9526;52.612;13.300;2022-10-22T01:25:05;116.63;;;26.50;;
18796;SDS011;9526;52.612;13.300;2022-10-22T01:27:41;42.45;;;19.40;;
18796;SDS011;9526;52.612;13.300;2022-10-22T01:30:18;132.15;;;27.98;;
18796;SDS011;9526;52.612;13.300;2022-10-22T01:32:44;98.13;;;26.92;;
18796;SDS011;9526;52.612;13.300;2022-10-22T01:35:13;103.68;;;28.92;;
18796;SDS011;9526;52.612;13.300;2022-10-22T01:37:42;89.35;;;25.67;;
18796;SDS011;9526;52.612;13.300;2022-10-22T01:40:10;53.20;;;21.65;;
18796;SDS011;9526;52.612;13.300;2022-10-22T01:42:35;75.45;;;22.13;;
18796;SDS011;9526;52.612;13.300;2022-10-22T01:44:59;109.72;;;26.33;;
18796;SDS011;9526;52.612;13.300;2022-10-22T01:47:28;80.82;;;23.55;;
18796;SDS011;9526;52.612;13.300;2022-10-22T01:50:10;37.55;;;18.08;;
18796;SDS011;9526;52.612;13.300;2022-10-22T01:52:50;146.90;;;26.55;;
18796;SDS011;9526;52.612;13.300;2022-10-22T01:55:25;27.10;;;15.55;;
18796;SDS011;9526;52.612;13.300;2022-10-22T01:57:54;35.05;;;16.60;;
18796;SDS011;9526;52.612;13.300;2022-10-22T02:00:31;44.45;;;19.10;;
18796;SDS011;9526;52.612;13.300;2022-10-22T02:02:59;96.10;;;24.23;;
18796;SDS011;9526;52.612;13.300;2022-10-22T02:05:29;121.72;;;26.77;;
18796;SDS011;9526;52.612;13.300;2022-10-22T02:08:00;69.13;;;23.95;;
18796;SDS011;9526;52.612;13.300;2022-10-22T02:10:27;77.18;;;23.10;;
18796;SDS011;9526;52.612;13.300;2022-10-22T02:12:52;110.60;;;26.88;;
18796;SDS011;9526;52.612;13.300;2022-10-22T02:15:17;83.38;;;24.05;;
18796;SDS011;9526;52.612;13.300;2022-10-22T02:17:44;155.52;;;27.67;;
18796;SDS011;9526;52.612;13.300;2022-10-22T02:20:12;71.10;;;22.67;;
18796;SDS011;9526;52.612;13.300;2022-10-22T02:22:40;71.90;;;23.75;;
18796;SDS011;9526;52.612;13.300;2022-10-22T02:25:06;42.25;;;18.92;;
18796;SDS011;9526;52.612;13.300;2022-10-22T02:27:31;99.28;;;24.92;;
18796;SDS011;9526;52.612;13.300;2022-10-22T02:30:03;77.03;;;24.63;;
18796;SDS011;9526;52.612;13.300;2022-10-22T02:32:32;115.07;;;24.92;;
18796;SDS011;9526;52.612;13.300;2022-10-22T02:35:01;55.88;;;21.15;;
18796;SDS011;9526;52.612;13.300;2022-10-22T02:37:27;51.13;;;20.42;;
18796;SDS011;9526;52.612;13.300;2022-10-22T02:39:51;51.35;;;20.05;;
18796;SDS011;9526;52.612;13.300;2022-10-22T02:42:16;34.63;;;16.40;;
18796;SDS011;9526;52.612;13.300;2022-10-22T02:44:40;70.38;;;22.30;;
18796;SDS011;9526;52.612;13.300;2022-10-22T02:47:04;55.42;;;21.30;;
18796;SDS011;9526;52.612;13.300;2022-10-22T02:49:27;85.25;;;23.88;;
18796;SDS011;9526;52.612;13.300;2022-10-22T02:51:51;101.63;;;25.35;;
18796;SDS011;9526;52.612;13.300;2022-10-22T02:54:16;86.93;;;23.83;;
18796;SDS011;9526;52.612;13.300;2022-10-22T02:56:40;146.05;;;28.45;;
18796;SDS011;9526;52.612;13.300;2022-10-22T02:59:03;90.57;;;24.65;;
18796;SDS011;9526;52.612;13.300;2022-10-22T03:01:27;77.93;;;22.52;;
18796;SDS011;9526;52.612;13.300;2022-10-22T03:03:50;74.30;;;21.58;;
18796;SDS011;9526;52.612;13.300;2022-10-22T03:06:14;83.68;;;24.73;;
18796;SDS011;9526;52.612;13.300;2022-10-22T03:08:38;132.38;;;26.95;;
18796;SDS011;9526;52.612;13.300;2022-10-22T03:11:04;145.73;;;26.25;;
18796;SDS011;9526;52.612;13.300;2022-10-22T03:13:27;85.65;;;22.83;;
18796;SDS011;9526;52.612;13.300;2022-10-22T03:15:51;95.20;;;23.65;;
18796;SDS011;9526;52.612;13.300;2022-10-22T03:18:15;67.55;;;21.77;;
18796;SDS011;9526;52.612;13.300;2022-10-22T03:20:39;71.70;;;23.38;;
18796;SDS011;9526;52.612;13.300;2022-10-22T03:23:02;56.10;;;21.10;;
18796;SDS011;9526;52.612;13.300;2022-10-22T03:25:26;92.68;;;24.52;;
18796;SDS011;9526;52.612;13.300;2022-10-22T03:27:53;52.38;;;19.60;;
18796;SDS011;9526;52.612;13.300;2022-10-22T03:30:22;43.88;;;18.95;;
18796;SDS011;9526;52.612;13.300;2022-10-22T03:32:46;137.75;;;26.58;;
18796;SDS011;9526;52.612;13.300;2022-10-22T03:35:10;57.80;;;21.23;;
18796;SDS011;9526;52.612;13.300;2022-10-22T03:37:33;100.85;;;23.85;;
18796;SDS011;9526;52.612;13.300;2022-10-22T03:39:59;78.20;;;25.17;;
18796;SDS011;9526;52.612;13.300;2022-10-22T03:42:23;83.35;;;24.23;;
18796;SDS011;9526;52.612;13.300;2022-10-22T03:44:48;114.50;;;25.30;;
18796;SDS011;9526;52.612;13.300;2022-10-22T03:47:12;86.38;;;24.58;;
18796;SDS011;9526;52.612;13.300;2022-10-22T03:49:36;75.32;;;20.77;;
18796;SDS011;9526;52.612;13.300;2022-10-22T03:52:03;84.93;;;23.08;;
18796;SDS011;9526;52.612;13.300;2022-10-22T03:54:28;61.90;;;21.70;;
18796;SDS011;9526;52.612;13.300;2022-10-22T03:56:52;90.75;;;25.05;;
18796;SDS011;9526;52.612;13.300;2022-10-22T03:59:16;79.60;;;22.48;;
18796;SDS011;9526;52.612;13.300;2022-10-22T04:01:41;118.00;;;25.75;;
18796;SDS011;9526;52.612;13.300;2022-10-22T04:04:04;112.45;;;25.65;;
18796;SDS011;9526;52.612;13.300;2022-10-22T04:06:28;49.35;;;20.13;;
18796;SDS011;9526;52.612;13.300;2022-10-22T04:08:52;109.18;;;24.83;;
18796;SDS011;9526;52.612;13.300;2022-10-22T04:11:16;105.53;;;25.58;;
18796;SDS011;9526;52.612;13.300;2022-10-22T04:13:40;167.38;;;28.38;;
18796;SDS011;9526;52.612;13.300;2022-10-22T04:16:07;96.93;;;23.92;;
18796;SDS011;9526;52.612;13.300;2022-10-22T04:18:33;60.67;;;20.85;;
18796;SDS011;9526;52.612;13.300;2022-10-22T04:20:57;99.45;;;24.27;;
18796;SDS011;9526;52.612;13.300;2022-10-22T04:23:21;71.55;;;21.63;;
18796;SDS011;9526;52.612;13.300;2022-10-22T04:25:44;54.13;;;19.05;;
18796;SDS011;9526;52.612;13.300;2022-10-22T04:28:08;70.95;;;22.17;;
18796;SDS011;9526;52.612;13.300;2022-10-22T04:30:32;84.78;;;23.13;;
18796;SDS011;9526;52.612;13.300;2022-10-22T04:32:56;157.10;;;27.02;;
18796;SDS011;9526;52.612;13.300;2022-10-22T04:35:21;91.80;;;23.83;;
18796;SDS011;9526;52.612;13.300;2022-10-22T04:37:49;57.10;;;20.55;;
18796;SDS011;9526;52.612;13.300;2022-10-22T04:40:13;69.47;;;20.80;;
18796;SDS011;9526;52.612;13.300;2022-10-22T04:42:37;86.78;;;22.67;;
18796;SDS011;9526;52.612;13.300;2022-10-22T04:45:00;117.00;;;25.42;;
18796;SDS011;9526;52.612;13.300;2022-10-22T04:47:24;114.50;;;24.88;;
18796;SDS011;9526;52.612;13.300;2022-10-22T04:49:47;133.02;;;25.52;;
18796;SDS011;9526;52.612;13.300;2022-10-22T04:52:12;70.80;;;22.30;;
18796;SDS011;9526;52.612;13.300;2022-10-22T04:54:36;60.55;;;21.48;;
18796;SDS011;9526;52.612;13.300;2022-10-22T04:56:59;114.38;;;25.20;;
18796;SDS011;9526;52.612;13.300;2022-10-22T04:59:23;74.05;;;22.33;;
18796;SDS011;9526;52.612;13.300;2022-10-22T05:01:46;52.50;;;19.88;;
18796;SDS011;9526;52.612;13.300;2022-10-22T05:04:10;111.38;;;24.10;;
18796;SDS011;9526;52.612;13.300;2022-10-22T05:06:36;55.40;;;19.13;;
18796;SDS011;9526;52.612;13.300;2022-10-22T05:09:02;37.90;;;16.92;;
18796;SDS011;9526;52.612;13.300;2022-10-22T05:11:28;56.95;;;18.95;;
18796;SDS011;9526;52.612;13.300;2022-10-22T05:13:55;156.57;;;25.25;;
18796;SDS011;9526;52.612;13.300;2022-10-22T05:16:19;158.63;;;26.50;;
18796;SDS011;9526;52.612;13.300;2022-10-22T05:18:43;108.40;;;24.05;;
18796;SDS011;9526;52.612;13.300;2022-10-22T05:21:07;117.40;;;23.70;;
18796;SDS011;9526;52.612;13.300;2022-10-22T05:23:33;59.30;;;20.23;;
18796;SDS011;9526;52.612;13.300;2022-10-22T05:26:00;71.88;;;21.63;;
18796;SDS011;9526;52.612;13.300;2022-10-22T05:28:24;123.13;;;25.05;;
18796;SDS011;9526;52.612;13.300;2022-10-22T05:30:51;89.05;;;22.42;;
18796;SDS011;9526;52.612;13.300;2022-10-22T05:33:15;74.53;;;22.25;;
18796;SDS011;9526;52.612;13.300;2022-10-22T05:35:44;217.25;;;27.17;;
18796;SDS011;9526;52.612;13.300;2022-10-22T05:38:08;52.58;;;18.65;;
18796;SDS011;9526;52.612;13.300;2022-10-22T05:40:31;64.82;;;20.05;;
18796;SDS011;9526;52.612;13.300;2022-10-22T05:42:57;83.55;;;21.55;;
18796;SDS011;9526;52.612;13.300;2022-10-22T05:45:20;124.47;;;24.75;;
18796;SDS011;9526;52.612;13.300;2022-10-22T05:47:44;72.18;;;21.20;;
18796;SDS011;9526;52.612;13.300;2022-10-22T05:50:07;52.30;;;17.80;;
18796;SDS011;9526;52.612;13.300;2022-10-22T05:52:31;66.50;;;20.95;;
18796;SDS011;9526;52.612;13.300;2022-10-22T05:54:55;85.78;;;22.20;;
18796;SDS011;9526;52.612;13.300;2022-10-22T05:57:18;87.78;;;22.98;;
18796;SDS011;9526;52.612;13.300;2022-10-22T05:59:43;90.57;;;22.98;;
18796;SDS011;9526;52.612;13.300;2022-10-22T06:02:07;84.13;;;21.05;;
18796;SDS011;9526;52.612;13.300;2022-10-22T06:04:31;41.33;;;17.00;;
18796;SDS011;9526;52.612;13.300;2022-10-22T06:06:55;31.92;;;14.40;;
18796;SDS011;9526;52.612;13.300;2022-10-22T06:09:19;54.38;;;20.45;;
18796;SDS011;9526;52.612;13.300;2022-10-22T06:11:47;71.07;;;21.30;;
18796;SDS011;9526;52.612;13.300;2022-10-22T06:14:11;96.55;;;23.77;;
18796;SDS011;9526;52.612;13.300;2022-10-22T06:16:36;109.20;;;24.00;;
18796;SDS011;9526;52.612;13.300;2022-10-22T06:19:01;92.95;;;23.92;;
18796;SDS011;9526;52.612;13.300;2022-10-22T06:21:24;77.85;;;22.73;;
18796;SDS011;9526;52.612;13.300;2022-10-22T06:23:48;170.00;;;27.25;;
18796;SDS011;9526;52.612;13.300;2022-10-22T06:26:12;72.45;;;20.83;;
18796;SDS011;9526;52.612;13.300;2022-10-22T06:28:36;69.60;;;20.63;;
18796;SDS011;9526;52.612;13.300;2022-10-22T06:31:00;63.63;;;21.00;;
18796;SDS011;9526;52.612;13.300;2022-10-22T06:33:26;55.45;;;20.05;;
18796;SDS011;9526;52.612;13.300;2022-10-22T06:35:51;66.53;;;20.80;;
18796;SDS011;9526;52.612;13.300;2022-10-22T06:38:14;93.55;;;23.08;;
18796;SDS011;9526;52.612;13.300;2022-10-22T06:40:38;63.53;;;21.05;;
18796;SDS011;9526;52.612;13.300;2022-10-22T06:43:03;82.00;;;22.52;;
18796;SDS011;9526;52.612;13.300;2022-10-22T06:45:27;74.40;;;22.40;;
18796;SDS011;9526;52.612;13.300;2022-10-22T06:47:51;80.45;;;22.15;;
18796;SDS011;9526;52.612;13.300;2022-10-22T06:50:17;78.10;;;21.88;;
18796;SDS011;9526;52.612;13.300;2022-10-22T06:52:41;89.07;;;25.60;;
18796;SDS011;9526;52.612;13.300;2022-10-22T06:55:04;69.40;;;24.52;;
18796;SDS011;9526;52.612;13.300;2022-10-22T06:57:29;72.78;;;30.83;;
18796;SDS011;9526;52.612;13.300;2022-10-22T06:59:52;79.35;;;26.42;;
18796;SDS011;9526;52.612;13.300;2022-10-22T07:02:16;86.07;;;25.67;;
18796;SDS011;9526;52.612;13.300;2022-10-22T07:04:39;93.90;;;26.77;;
18796;SDS011;9526;52.612;13.300;2022-10-22T07:07:04;88.45;;;26.65;;
18796;SDS011;9526;52.612;13.300;2022-10-22T07:09:28;65.25;;;22.77;;
18796;SDS011;9526;52.612;13.300;2022-10-22T07:11:52;87.35;;;26.88;;
18796;SDS011;9526;52.612;13.300;2022-10-22T07:14:15;70.00;;;23.73;;
18796;SDS011;9526;52.612;13.300;2022-10-22T07:16:39;66.75;;;23.70;;
18796;SDS011;9526;52.612;13.300;2022-10-22T07:19:03;74.97;;;26.13;;
18796;SDS011;9526;52.612;13.300;2022-10-22T07:21:27;73.18;;;26.40;;
18796;SDS011;9526;52.612;13.300;2022-10-22T07:23:53;74.97;;;25.55;;
18796;SDS011;9526;52.612;13.300;2022-10-22T07:26:17;89.78;;;27.05;;
18796;SDS011;9526;52.612;13.300;2022-10-22T07:28:42;112.18;;;27.52;;
18796;SDS011;9526;52.612;13.300;2022-10-22T07:31:06;108.75;;;28.20;;
18796;SDS011;9526;52.612;13.300;2022-10-22T07:33:31;85.75;;;26.27;;
18796;SDS011;9526;52.612;13.300;2022-10-22T07:35:57;67.53;;;24.40;;
18796;SDS011;9526;52.612;13.300;2022-10-22T07:38:22;77.45;;;25.48;;
18796;SDS011;9526;52.612;13.300;2022-10-22T07:40:48;62.33;;;23.90;;
18796;SDS011;9526;52.612;13.300;2022-10-22T07:43:11;70.38;;;24.88;;
18796;SDS011;9526;52.612;13.300;2022-10-22T07:45:36;70.18;;;24.45;;
18796;SDS011;9526;52.612;13.300;2022-10-22T07:47:59;62.10;;;23.60;;
18796;SDS011;9526;52.612;13.300;2022-10-22T07:50:23;54.55;;;22.08;;
18796;SDS011;9526;52.612;13.300;2022-10-22T07:52:46;56.92;;;22.52;;
18796;SDS011;9526;52.612;13.300;2022-10-22T07:55:10;58.45;;;22.38;;
18796;SDS011;9526;52.612;13.300;2022-10-22T07:57:35;56.05;;;22.00;;
18796;SDS011;9526;52.612;13.300;2022-10-22T07:59:59;60.00;;;22.50;;
18796;SDS011;9526;52.612;13.300;2022-10-22T08:02:32;56.78;;;22.02;;
18796;SDS011;9526;52.612;13.300;2022-10-22T08:04:55;50.22;;;21.95;;
18796;SDS011;9526;52.612;13.300;2022-10-22T08:07:19;52.65;;;21.23;;
18796;SDS011;9526;52.612;13.300;2022-10-22T08:09:43;61.45;;;21.85;;
18796;SDS011;9526;52.612;13.300;2022-10-22T08:12:07;50.95;;;21.00;;
18796;SDS011;9526;52.612;13.300;2022-10-22T08:14:32;51.13;;;21.27;;
18796;SDS011;9526;52.612;13.300;2022-10-22T08:16:55;51.28;;;20.55;;
18796;SDS011;9526;52.612;13.300;2022-10-22T08:19:19;52.50;;;20.20;;
18796;SDS011;9526;52.612;13.300;2022-10-22T08:21:43;50.72;;;20.80;;
18796;SDS011;9526;52.612;13.300;2022-10-22T08:24:07;43.03;;;19.88;;
18796;SDS011;9526;52.612;13.300;2022-10-22T08:26:31;52.10;;;20.48;;
18796;SDS011;9526;52.612;13.300;2022-10-22T08:28:54;51.88;;;20.30;;
18796;SDS011;9526;52.612;13.300;2022-10-22T08:31:19;45.75;;;20.25;;
18796;SDS011;9526;52.612;13.300;2022-10-22T08:33:43;48.13;;;20.88;;
18796;SDS011;9526;52.612;13.300;2022-10-22T08:36:07;41.80;;;19.95;;
18796;SDS011;9526;52.612;13.300;2022-10-22T08:38:31;47.83;;;20.98;;
18796;SDS011;9526;52.612;13.300;2022-10-22T08:40:56;53.70;;;20.80;;
18796;SDS011;9526;52.612;13.300;2022-10-22T08:46:36;44.90;;;20.15;;
18796;SDS011;9526;52.612;13.300;2022-10-22T08:49:15;45.67;;;20.55;;
18796;SDS011;9526;52.612;13.300;2022-10-22T08:51:43;36.10;;;18.85;;
18796;SDS011;9526;52.612;13.300;2022-10-22T08:54:12;35.20;;;18.35;;
18796;SDS011;9526;52.612;13.300;2022-10-22T08:56:54;34.50;;;18.25;;
18796;SDS011;9526;52.612;13.300;2022-10-22T08:59:35;33.80;;;18.52;;
18796;SDS011;9526;52.612;13.300;2022-10-22T09:02:13;29.48;;;17.95;;
18796;SDS011;9526;52.612;13.300;2022-10-22T09:04:55;33.03;;;17.55;;
18796;SDS011;9526;52.612;13.300;2022-10-22T09:07:32;43.08;;;18.35;;
18796;SDS011;9526;52.612;13.300;2022-10-22T09:10:09;37.55;;;18.80;;
18796;SDS011;9526;52.612;13.300;2022-10-22T09:12:34;35.45;;;18.98;;
18796;SDS011;9526;52.612;13.300;2022-10-22T09:14:58;36.42;;;18.73;;
18796;SDS011;9526;52.612;13.300;2022-10-22T09:17:27;41.40;;;19.08;;
18796;SDS011;9526;52.612;13.300;2022-10-22T09:20:02;29.98;;;17.98;;
18796;SDS011;9526;52.612;13.300;2022-10-22T09:22:37;35.13;;;19.15;;
18796;SDS011;9526;52.612;13.300;2022-10-22T09:25:17;38.63;;;18.65;;
18796;SDS011;9526;52.612;13.300;2022-10-22T09:27:43;33.03;;;17.75;;
18796;SDS011;9526;52.612;13.300;2022-10-22T09:30:09;29.35;;;16.77;;
18796;SDS011;9526;52.612;13.300;2022-10-22T09:32:39;33.25;;;18.13;;
18796;SDS011;9526;52.612;13.300;2022-10-22T09:35:03;32.03;;;17.50;;
18796;SDS011;9526;52.612;13.300;2022-10-22T09:37:32;31.75;;;17.10;;
18796;SDS011;9526;52.612;13.300;2022-10-22T09:39:56;31.42;;;17.77;;
18796;SDS011;9526;52.612;13.300;2022-10-22T09:42:25;26.67;;;17.30;;
18796;SDS011;9526;52.612;13.300;2022-10-22T09:44:51;26.85;;;16.73;;
18796;SDS011;9526;52.612;13.300;2022-10-22T09:47:25;25.52;;;15.73;;
18796;SDS011;9526;52.612;13.300;2022-10-22T09:50:09;29.67;;;15.90;;
18796;SDS011;9526;52.612;13.300;2022-10-22T09:52:57;23.02;;;15.55;;
18796;SDS011;9526;52.612;13.300;2022-10-22T09:55:24;26.15;;;16.33;;
18796;SDS011;9526;52.612;13.300;2022-10-22T09:57:51;32.20;;;16.38;;
18796;SDS011;9526;52.612;13.300;2022-10-22T10:00:17;28.52;;;16.85;;
18796;SDS011;9526;52.612;13.300;2022-10-22T10:02:42;25.33;;;16.83;;
18796;SDS011;9526;52.612;13.300;2022-10-22T10:05:07;28.65;;;17.20;;
18796;SDS011;9526;52.612;13.300;2022-10-22T10:07:41;26.33;;;16.95;;
18796;SDS011;9526;52.612;13.300;2022-10-22T10:10:09;28.10;;;17.05;;
18796;SDS011;9526;52.612;13.300;2022-10-22T10:12:42;28.17;;;17.05;;
18796;SDS011;9526;52.612;13.300;2022-10-22T10:15:15;25.75;;;17.15;;
18796;SDS011;9526;52.612;13.300;2022-10-22T10:17:47;24.65;;;15.65;;
18796;SDS011;9526;52.612;13.300;2022-10-22T10:20:23;23.60;;;16.05;;
18796;SDS011;9526;52.612;13.300;2022-10-22T10:22:57;22.05;;;15.90;;
18796;SDS011;9526;52.612;13.300;2022-10-22T10:25:31;24.17;;;16.05;;
18796;SDS011;9526;52.612;13.300;2022-10-22T10:28:10;20.75;;;15.65;;
18796;SDS011;9526;52.612;13.300;2022-10-22T10:30:46;23.15;;;15.90;;
18796;SDS011;9526;52.612;13.300;2022-10-22T10:33:21;20.88;;;14.65;;
18796;SDS011;9526;52.612;13.300;2022-10-22T10:35:57;19.83;;;14.38;;
18796;SDS011;9526;52.612;13.300;2022-10-22T10:38:33;20.08;;;14.77;;
18796;SDS011;9526;52.612;13.300;2022-10-22T10:41:09;21.60;;;15.55;;
18796;SDS011;9526;52.612;13.300;2022-10-22T10:43:42;18.98;;;15.00;;
18796;SDS011;9526;52.612;13.300;2022-10-22T10:46:20;21.05;;;15.15;;
18796;SDS011;9526;52.612;13.300;2022-10-22T10:48:58;21.42;;;15.43;;
18796;SDS011;9526;52.612;13.300;2022-10-22T10:51:28;22.13;;;14.82;;
18796;SDS011;9526;52.612;13.300;2022-10-22T10:54:06;21.20;;;15.27;;
18796;SDS011;9526;52.612;13.300;2022-10-22T10:56:44;21.00;;;13.75;;
18796;SDS011;9526;52.612;13.300;2022-10-22T10:59:16;17.63;;;14.05;;
18796;SDS011;9526;52.612;13.300;2022-10-22T11:01:55;20.75;;;13.52;;
18796;SDS011;9526;52.612;13.300;2022-10-22T11:04:56;17.80;;;13.50;;
18796;SDS011;9526;52.612;13.300;2022-10-22T11:07:54;20.02;;;13.90;;
18796;SDS011;9526;52.612;13.300;2022-10-22T11:10:24;19.45;;;13.90;;
18796;SDS011;9526;52.612;13.300;2022-10-22T11:12:54;20.52;;;14.27;;
18796;SDS011;9526;52.612;13.300;2022-10-22T11:15:26;23.02;;;14.80;;
18796;SDS011;9526;52.612;13.300;2022-10-22T11:17:54;24.10;;;15.60;;
18796;SDS011;9526;52.612;13.300;2022-10-22T11:20:27;20.55;;;14.43;;
18796;SDS011;9526;52.612;13.300;2022-10-22T11:23:03;22.42;;;14.88;;
18796;SDS011;9526;52.612;13.300;2022-10-22T11:25:41;21.02;;;13.20;;
18796;SDS011;9526;52.612;13.300;2022-10-22T11:28:08;18.17;;;13.23;;
18796;SDS011;9526;52.612;13.300;2022-10-22T11:30:37;19.48;;;13.02;;
18796;SDS011;9526;52.612;13.300;2022-10-22T11:33:06;20.27;;;13.77;;
18796;SDS011;9526;52.612;13.300;2022-10-22T11:35:36;19.45;;;13.25;;
18796;SDS011;9526;52.612;13.300;2022-10-22T11:38:04;17.83;;;12.80;;
18796;SDS011;9526;52.612;13.300;2022-10-22T11:40:32;23.17;;;13.88;;
18796;SDS011;9526;52.612;13.300;2022-10-22T11:43:02;19.67;;;14.07;;
18796;SDS011;9526;52.612;13.300;2022-10-22T11:45:29;21.10;;;14.27;;
18796;SDS011;9526;52.612;13.300;2022-10-22T11:47:57;20.90;;;13.20;;
18796;SDS011;9526;52.612;13.300;2022-10-22T11:50:43;18.55;;;12.30;;
18796;SDS011;9526;52.612;13.300;2022-10-22T11:53:17;16.95;;;11.50;;
18796;SDS011;9526;52.612;13.300;2022-10-22T11:55:51;16.27;;;11.40;;
18796;SDS011;9526;52.612;13.300;2022-10-22T12:03:52;19.90;;;10.77;;
18796;SDS011;9526;52.612;13.300;2022-10-22T12:06:49;14.43;;;10.90;;
18796;SDS011;9526;52.612;13.300;2022-10-22T12:09:18;20.67;;;11.48;;
18796;SDS011;9526;52.612;13.300;2022-10-22T12:11:46;12.98;;;10.43;;
18796;SDS011;9526;52.612;13.300;2022-10-22T12:14:17;14.27;;;10.65;;
18796;SDS011;9526;52.612;13.300;2022-10-22T12:16:47;16.10;;;10.60;;
18796;SDS011;9526;52.612;13.300;2022-10-22T12:19:23;17.75;;;9.68;;
18796;SDS011;9526;52.612;13.300;2022-10-22T12:21:51;13.60;;;8.15;;
18796;SDS011;9526;52.612;13.300;2022-10-22T12:24:20;13.35;;;7.97;;
18796;SDS011;9526;52.612;13.300;2022-10-22T12:26:46;15.35;;;7.80;;
18796;SDS011;9526;52.612;13.300;2022-10-22T12:29:14;10.50;;;6.65;;
18796;SDS011;9526;52.612;13.300;2022-10-22T12:31:40;12.68;;;7.53;;
18796;SDS011;9526;52.612;13.300;2022-10-22T12:34:06;13.88;;;6.47;;
18796;SDS011;9526;52.612;13.300;2022-10-22T12:36:35;10.13;;;6.30;;
18796;SDS011;9526;52.612;13.300;2022-10-22T12:39:00;12.45;;;5.70;;
18796;SDS011;9526;52.612;13.300;2022-10-22T12:41:30;9.18;;;5.60;;
18796;SDS011;9526;52.612;13.300;2022-10-22T12:43:57;12.75;;;5.68;;
18796;SDS011;9526;52.612;13.300;2022-10-22T12:46:21;11.30;;;5.93;;
18796;SDS011;9526;52.612;13.300;2022-10-22T12:48:45;13.25;;;6.40;;
18796;SDS011;9526;52.612;13.300;2022-10-22T12:51:10;7.95;;;5.18;;
18796;SDS011;9526;52.612;13.300;2022-10-22T12:53:40;11.73;;;5.70;;
18796;SDS011;9526;52.612;13.300;2022-10-22T12:56:09;9.13;;;5.63;;
18796;SDS011;9526;52.612;13.300;2022-10-22T12:58:38;8.07;;;4.97;;
18796;SDS011;9526;52.612;13.300;2022-10-22T13:01:05;8.68;;;5.32;;
18796;SDS011;9526;52.612;13.300;2022-10-22T13:03:33;11.10;;;5.30;;
18796;SDS011;9526;52.612;13.300;2022-10-22T13:06:10;9.02;;;4.80;;
18796;SDS011;9526;52.612;13.300;2022-10-22T13:08:36;12.38;;;5.07;;
18796;SDS011;9526;52.612;13.300;2022-10-22T13:11:05;15.18;;;4.55;;
18796;SDS011;9526;52.612;13.300;2022-10-22T13:13:31;9.98;;;4.80;;
18796;SDS011;9526;52.612;13.300;2022-10-22T13:16:13;11.95;;;4.13;;
18796;SDS011;9526;52.612;13.300;2022-10-22T13:18:40;8.15;;;4.60;;
18796;SDS011;9526;52.612;13.300;2022-10-22T13:21:18;7.93;;;4.40;;
18796;SDS011;9526;52.612;13.300;2022-10-22T13:23:54;8.27;;;4.18;;
18796;SDS011;9526;52.612;13.300;2022-10-22T13:26:21;9.23;;;3.90;;
18796;SDS011;9526;52.612;13.300;2022-10-22T13:28:50;7.20;;;3.80;;
18796;SDS011;9526;52.612;13.300;2022-10-22T13:31:16;8.73;;;3.63;;
18796;SDS011;9526;52.612;13.300;2022-10-22T13:33:42;8.48;;;3.35;;
18796;SDS011;9526;52.612;13.300;2022-10-22T13:36:09;6.57;;;3.60;;
18796;SDS011;9526;52.612;13.300;2022-10-22T13:38:36;9.38;;;4.25;;
18796;SDS011;9526;52.612;13.300;2022-10-22T13:41:00;5.05;;;3.25;;
18796;SDS011;9526;52.612;13.300;2022-10-22T13:43:25;7.25;;;3.50;;
18796;SDS011;9526;52.612;13.300;2022-10-22T13:45:51;12.68;;;3.50;;
18796;SDS011;9526;52.612;13.300;2022-10-22T13:48:17;8.75;;;3.83;;
18796;SDS011;9526;52.612;13.300;2022-10-22T13:50:43;7.00;;;3.58;;
18796;SDS011;9526;52.612;13.300;2022-10-22T13:53:08;6.30;;;3.45;;
18796;SDS011;9526;52.612;13.300;2022-10-22T13:55:39;8.20;;;2.90;;
18796;SDS011;9526;52.612;13.300;2022-10-22T13:58:08;9.20;;;3.25;;
18796;SDS011;9526;52.612;13.300;2022-10-22T14:00:34;9.25;;;3.55;;
18796;SDS011;9526;52.612;13.300;2022-10-22T14:03:03;7.68;;;3.53;;
18796;SDS011;9526;52.612;13.300;2022-10-22T14:05:27;9.40;;;3.50;;
18796;SDS011;9526;52.612;13.300;2022-10-22T14:07:52;9.80;;;3.50;;
18796;SDS011;9526;52.612;13.300;2022-10-22T14:10:19;6.13;;;2.90;;
18796;SDS011;9526;52.612;13.300;2022-10-22T14:12:45;9.02;;;2.97;;
18796;SDS011;9526;52.612;13.300;2022-10-22T14:15:14;6.90;;;3.35;;
18796;SDS011;9526;52.612;13.300;2022-10-22T14:17:40;9.25;;;3.33;;
18796;SDS011;9526;52.612;13.300;2022-10-22T14:20:08;17.45;;;2.90;;
18796;SDS011;9526;52.612;13.300;2022-10-22T14:22:39;5.97;;;3.08;;
18796;SDS011;9526;52.612;13.300;2022-10-22T14:25:03;9.45;;;3.20;;
18796;SDS011;9526;52.612;13.300;2022-10-22T14:27:27;7.70;;;2.70;;
18796;SDS011;9526;52.612;13.300;2022-10-22T14:29:51;10.25;;;3.45;;
18796;SDS011;9526;52.612;13.300;2022-10-22T14:32:20;6.60;;;3.03;;
18796;SDS011;9526;52.612;13.300;2022-10-22T14:34:43;7.82;;;3.30;;